sensor_id;sensor_type;location;lat;lon;timestamp;pressure;altitude;pressure_sealevel;temperature;humidity
38612;BME280;24368;52.156;20.788;2023-04-03T00:03:55;101007.84;;;1.76;93.43
38612;BME280;24368;52.156;20.788;2023-04-03T00:08:57;101009.48;;;1.84;93.05
38612;BME280;24368;52.156;20.788;2023-04-03T00:13:59;101015.88;;;1.81;92.76
38612;BME280;24368;52.156;20.788;2023-04-03T00:19:01;101013.51;;;1.73;92.08
38612;BME280;24368;52.156;20.788;2023-04-03T00:24:03;101017.15;;;1.64;92.21
38612;BME280;24368;52.156;20.788;2023-04-03T00:29:05;101021.63;;;1.55;92.34
38612;BME280;24368;52.156;20.788;2023-04-03T00:34:07;101023.85;;;1.45;92.52
38612;BME280;24368;52.156;20.788;2023-04-03T00:39:09;101021.65;;;1.37;93.27
38612;BME280;24368;52.156;20.788;2023-04-03T00:49:39;101029.95;;;1.21;92.50
38612;BME280;24368;52.156;20.788;2023-04-03T00:54:42;101034.14;;;1.13;92.72
38612;BME280;24368;52.156;20.788;2023-04-03T00:59:50;101038.03;;;1.09;92.20
38612;BME280;24368;52.156;20.788;2023-04-03T01:04:54;101046.24;;;1.00;91.88
38612;BME280;24368;52.156;20.788;2023-04-03T01:09:58;101052.99;;;0.94;92.19
38612;BME280;24368;52.156;20.788;2023-04-03T01:15:21;101055.14;;;0.89;91.77
38612;BME280;24368;52.156;20.788;2023-04-03T01:21:03;101065.77;;;0.84;92.46
38612;BME280;24368;52.156;20.788;2023-04-03T01:26:09;101071.89;;;0.77;92.23
38612;BME280;24368;52.156;20.788;2023-04-03T01:36:23;101082.80;;;0.65;92.28
38612;BME280;24368;52.156;20.788;2023-04-03T01:41:26;101087.23;;;0.67;92.61
38612;BME280;24368;52.156;20.788;2023-04-03T01:46:28;101090.64;;;0.68;92.50
38612;BME280;24368;52.156;20.788;2023-04-03T01:51:30;101091.45;;;0.69;92.01
38612;BME280;24368;52.156;20.788;2023-04-03T01:56:31;101088.66;;;0.66;91.67
38612;BME280;24368;52.156;20.788;2023-04-03T02:01:33;101097.85;;;0.59;91.59
38612;BME280;24368;52.156;20.788;2023-04-03T02:06:35;101101.23;;;0.50;92.39
38612;BME280;24368;52.156;20.788;2023-04-03T02:11:37;101105.66;;;0.40;92.44
38612;BME280;24368;52.156;20.788;2023-04-03T02:16:38;101105.81;;;0.33;92.56
38612;BME280;24368;52.156;20.788;2023-04-03T02:21:40;101110.77;;;0.27;92.55
38612;BME280;24368;52.156;20.788;2023-04-03T02:26:42;101113.30;;;0.21;93.14
38612;BME280;24368;52.156;20.788;2023-04-03T02:31:44;101114.02;;;0.13;93.69
38612;BME280;24368;52.156;20.788;2023-04-03T02:36:46;101121.17;;;0.11;93.67
38612;BME280;24368;52.156;20.788;2023-04-03T02:41:47;101121.48;;;0.04;93.62
38612;BME280;24368;52.156;20.788;2023-04-03T02:46:49;101128.02;;;0.02;94.40
38612;BME280;24368;52.156;20.788;2023-04-03T02:51:51;101130.30;;;-0.07;94.15
38612;BME280;24368;52.156;20.788;2023-04-03T02:56:53;101134.92;;;-0.06;93.75
38612;BME280;24368;52.156;20.788;2023-04-03T03:01:54;101137.13;;;0.03;93.77
38612;BME280;24368;52.156;20.788;2023-04-03T03:06:57;101132.13;;;0.03;93.17
38612;BME280;24368;52.156;20.788;2023-04-03T03:11:59;101133.88;;;-0.06;92.54
38612;BME280;24368;52.156;20.788;2023-04-03T03:17:00;101138.52;;;-0.13;93.87
38612;BME280;24368;52.156;20.788;2023-04-03T03:22:02;101140.10;;;-0.21;93.84
38612;BME280;24368;52.156;20.788;2023-04-03T03:27:04;101143.55;;;-0.29;94.81
38612;BME280;24368;52.156;20.788;2023-04-03T03:32:06;101143.96;;;-0.39;95.37
38612;BME280;24368;52.156;20.788;2023-04-03T03:37:07;101146.96;;;-0.44;95.55
38612;BME280;24368;52.156;20.788;2023-04-03T03:42:09;101146.21;;;-0.51;95.76
38612;BME280;24368;52.156;20.788;2023-04-03T03:47:11;101147.54;;;-0.58;96.56
38612;BME280;24368;52.156;20.788;2023-04-03T03:52:13;101147.27;;;-0.64;96.76
38612;BME280;24368;52.156;20.788;2023-04-03T03:57:15;101153.09;;;-0.63;97.06
38612;BME280;24368;52.156;20.788;2023-04-03T04:02:16;101158.09;;;-0.58;95.94
38612;BME280;24368;52.156;20.788;2023-04-03T04:07:18;101162.59;;;-0.54;95.79
38612;BME280;24368;52.156;20.788;2023-04-03T04:12:20;101164.61;;;-0.61;95.54
38612;BME280;24368;52.156;20.788;2023-04-03T04:17:22;101170.47;;;-0.69;95.56
38612;BME280;24368;52.156;20.788;2023-04-03T04:22:24;101165.23;;;-0.71;96.40
38612;BME280;24368;52.156;20.788;2023-04-03T04:27:26;101164.36;;;-0.81;96.94
38612;BME280;24368;52.156;20.788;2023-04-03T04:32:28;101173.18;;;-0.85;97.63
38612;BME280;24368;52.156;20.788;2023-04-03T04:37:29;101182.20;;;-0.86;97.77
38612;BME280;24368;52.156;20.788;2023-04-03T04:42:31;101186.83;;;-0.84;98.59
38612;BME280;24368;52.156;20.788;2023-04-03T04:47:33;101194.70;;;-0.87;98.99
38612;BME280;24368;52.156;20.788;2023-04-03T04:52:35;101203.38;;;-0.87;98.57
38612;BME280;24368;52.156;20.788;2023-04-03T04:57:37;101208.75;;;-0.87;98.33
38612;BME280;24368;52.156;20.788;2023-04-03T05:02:40;101212.66;;;-0.81;98.69
38612;BME280;24368;52.156;20.788;2023-04-03T05:07:41;101215.06;;;-0.76;97.79
38612;BME280;24368;52.156;20.788;2023-04-03T05:12:43;101214.41;;;-0.69;96.34
38612;BME280;24368;52.156;20.788;2023-04-03T05:17:45;101216.12;;;-0.63;95.94
38612;BME280;24368;52.156;20.788;2023-04-03T05:22:47;101215.77;;;-0.59;95.34
38612;BME280;24368;52.156;20.788;2023-04-03T05:27:50;101224.92;;;-0.55;95.11
38612;BME280;24368;52.156;20.788;2023-04-03T05:32:52;101230.94;;;-0.53;94.80
38612;BME280;24368;52.156;20.788;2023-04-03T05:37:54;101235.98;;;-0.58;94.29
38612;BME280;24368;52.156;20.788;2023-04-03T05:42:56;101243.48;;;-0.64;94.83
38612;BME280;24368;52.156;20.788;2023-04-03T05:47:57;101246.87;;;-0.62;94.07
38612;BME280;24368;52.156;20.788;2023-04-03T05:53:00;101245.63;;;-0.57;94.73
38612;BME280;24368;52.156;20.788;2023-04-03T05:58:04;101248.71;;;-0.56;94.44
38612;BME280;24368;52.156;20.788;2023-04-03T06:03:05;101248.65;;;-0.59;93.76
38612;BME280;24368;52.156;20.788;2023-04-03T06:08:07;101247.86;;;-0.57;93.51
38612;BME280;24368;52.156;20.788;2023-04-03T06:13:10;101256.27;;;-0.46;93.39
38612;BME280;24368;52.156;20.788;2023-04-03T06:18:12;101255.76;;;-0.38;92.10
38612;BME280;24368;52.156;20.788;2023-04-03T06:23:13;101263.30;;;-0.36;92.01
38612;BME280;24368;52.156;20.788;2023-04-03T06:28:15;101270.23;;;-0.36;92.80
38612;BME280;24368;52.156;20.788;2023-04-03T06:33:18;101277.56;;;-0.33;92.33
38612;BME280;24368;52.156;20.788;2023-04-03T06:38:19;101278.43;;;-0.24;92.44
38612;BME280;24368;52.156;20.788;2023-04-03T06:43:21;101278.02;;;-0.23;92.34
38612;BME280;24368;52.156;20.788;2023-04-03T06:48:23;101282.46;;;-0.21;91.42
38612;BME280;24368;52.156;20.788;2023-04-03T06:53:25;101290.36;;;-0.25;91.51
38612;BME280;24368;52.156;20.788;2023-04-03T06:58:27;101292.69;;;-0.17;92.54
38612;BME280;24368;52.156;20.788;2023-04-03T07:03:29;101294.20;;;-0.12;91.90
38612;BME280;24368;52.156;20.788;2023-04-03T07:08:31;101300.30;;;-0.05;91.96
38612;BME280;24368;52.156;20.788;2023-04-03T07:13:33;101299.19;;;-0.03;90.62
38612;BME280;24368;52.156;20.788;2023-04-03T07:18:36;101306.91;;;0.03;90.98
38612;BME280;24368;52.156;20.788;2023-04-03T07:23:38;101312.20;;;0.09;89.17
38612;BME280;24368;52.156;20.788;2023-04-03T07:28:40;101315.70;;;0.21;90.24
38612;BME280;24368;52.156;20.788;2023-04-03T07:33:43;101318.88;;;0.32;89.96
38612;BME280;24368;52.156;20.788;2023-04-03T07:38:46;101319.00;;;0.42;88.80
38612;BME280;24368;52.156;20.788;2023-04-03T07:43:48;101322.21;;;0.52;88.08
38612;BME280;24368;52.156;20.788;2023-04-03T07:48:51;101326.53;;;0.56;87.94
38612;BME280;24368;52.156;20.788;2023-04-03T07:53:53;101329.48;;;0.64;86.94
38612;BME280;24368;52.156;20.788;2023-04-03T07:58:55;101325.84;;;0.71;86.25
38612;BME280;24368;52.156;20.788;2023-04-03T08:03:57;101322.42;;;0.74;84.21
38612;BME280;24368;52.156;20.788;2023-04-03T08:08:59;101321.36;;;0.99;83.55
38612;BME280;24368;52.156;20.788;2023-04-03T08:14:00;101325.08;;;1.12;81.76
38612;BME280;24368;52.156;20.788;2023-04-03T08:19:04;101326.41;;;1.06;79.49
38612;BME280;24368;52.156;20.788;2023-04-03T08:24:06;101330.23;;;1.17;79.92
38612;BME280;24368;52.156;20.788;2023-04-03T08:29:07;101328.84;;;1.40;79.79
38612;BME280;24368;52.156;20.788;2023-04-03T08:34:09;101325.27;;;1.61;77.66
38612;BME280;24368;52.156;20.788;2023-04-03T08:39:11;101336.00;;;1.65;77.09
38612;BME280;24368;52.156;20.788;2023-04-03T08:49:56;101342.29;;;1.53;74.32
38612;BME280;24368;52.156;20.788;2023-04-03T08:55:02;101342.31;;;1.64;73.80
38612;BME280;24368;52.156;20.788;2023-04-03T09:00:16;101339.60;;;1.84;74.73
38612;BME280;24368;52.156;20.788;2023-04-03T09:05:26;101343.48;;;2.32;72.98
38612;BME280;24368;52.156;20.788;2023-04-03T09:10:33;101333.77;;;2.60;70.54
38612;BME280;24368;52.156;20.788;2023-04-03T09:15:36;101336.98;;;2.81;70.26
38612;BME280;24368;52.156;20.788;2023-04-03T09:25:45;101335.34;;;2.56;67.10
38612;BME280;24368;52.156;20.788;2023-04-03T09:30:47;101331.85;;;2.86;68.24
38612;BME280;24368;52.156;20.788;2023-04-03T09:35:50;101335.00;;;2.96;66.94
38612;BME280;24368;52.156;20.788;2023-04-03T09:46:36;101334.08;;;3.00;65.60
38612;BME280;24368;52.156;20.788;2023-04-03T09:51:39;101333.69;;;3.27;63.63
38612;BME280;24368;52.156;20.788;2023-04-03T09:56:49;101332.77;;;3.44;63.56
38612;BME280;24368;52.156;20.788;2023-04-03T10:02:22;101329.39;;;3.89;62.91
38612;BME280;24368;52.156;20.788;2023-04-03T10:12:31;101341.75;;;3.83;62.67
38612;BME280;24368;52.156;20.788;2023-04-03T10:28:39;101342.61;;;3.65;59.83
38612;BME280;24368;52.156;20.788;2023-04-03T10:34:33;101335.70;;;3.79;61.70
38612;BME280;24368;52.156;20.788;2023-04-03T10:55:40;101332.73;;;4.49;59.94
38612;BME280;24368;52.156;20.788;2023-04-03T11:00:47;101323.14;;;5.00;60.19
38612;BME280;24368;52.156;20.788;2023-04-03T11:05:53;101318.63;;;5.33;59.51
38612;BME280;24368;52.156;20.788;2023-04-03T11:10:58;101320.81;;;4.90;60.06
38612;BME280;24368;52.156;20.788;2023-04-03T11:16:03;101322.00;;;5.68;60.34
38612;BME280;24368;52.156;20.788;2023-04-03T11:21:39;101313.07;;;5.85;57.95
38612;BME280;24368;52.156;20.788;2023-04-03T11:26:44;101315.44;;;4.84;57.68
38612;BME280;24368;52.156;20.788;2023-04-03T11:32:02;101313.52;;;5.64;57.65
38612;BME280;24368;52.156;20.788;2023-04-03T11:37:14;101305.61;;;6.23;55.90
38612;BME280;24368;52.156;20.788;2023-04-03T11:42:34;101304.48;;;6.28;54.22
38612;BME280;24368;52.156;20.788;2023-04-03T11:47:48;101297.30;;;6.89;52.77
38612;BME280;24368;52.156;20.788;2023-04-03T12:03:00;101305.05;;;6.57;54.60
38612;BME280;24368;52.156;20.788;2023-04-03T12:13:29;101295.17;;;8.47;51.41
38612;BME280;24368;52.156;20.788;2023-04-03T12:29:23;101297.16;;;10.10;44.95
38612;BME280;24368;52.156;20.788;2023-04-03T12:40:09;101272.42;;;12.11;37.47
38612;BME280;24368;52.156;20.788;2023-04-03T12:45:22;101276.80;;;8.62;42.85
38612;BME280;24368;52.156;20.788;2023-04-03T12:50:27;101285.30;;;10.74;40.85
38612;BME280;24368;52.156;20.788;2023-04-03T12:55:32;101272.25;;;12.24;37.64
38612;BME280;24368;52.156;20.788;2023-04-03T13:00:35;101277.89;;;9.20;42.98
38612;BME280;24368;52.156;20.788;2023-04-03T13:05:38;101284.06;;;8.03;43.69
38612;BME280;24368;52.156;20.788;2023-04-03T13:10:53;101277.64;;;9.44;41.31
38612;BME280;24368;52.156;20.788;2023-04-03T13:15:57;101277.98;;;8.29;42.12
38612;BME280;24368;52.156;20.788;2023-04-03T13:21:10;101277.90;;;7.78;44.44
38612;BME280;24368;52.156;20.788;2023-04-03T13:26:16;101276.18;;;8.30;43.29
38612;BME280;24368;52.156;20.788;2023-04-03T13:31:23;101279.10;;;7.35;44.49
38612;BME280;24368;52.156;20.788;2023-04-03T13:36:31;101274.75;;;9.07;42.18
38612;BME280;24368;52.156;20.788;2023-04-03T13:41:37;101280.20;;;7.54;44.64
38612;BME280;24368;52.156;20.788;2023-04-03T13:46:39;101276.73;;;8.30;43.89
38612;BME280;24368;52.156;20.788;2023-04-03T13:51:41;101270.03;;;7.80;43.42
38612;BME280;24368;52.156;20.788;2023-04-03T13:56:43;101273.23;;;7.56;44.33
38612;BME280;24368;52.156;20.788;2023-04-03T14:01:56;101270.62;;;6.97;44.74
38612;BME280;24368;52.156;20.788;2023-04-03T14:07:08;101274.08;;;6.30;46.75
38612;BME280;24368;52.156;20.788;2023-04-03T14:12:26;101272.58;;;6.69;46.20
38612;BME280;24368;52.156;20.788;2023-04-03T14:17:29;101274.39;;;6.12;46.66
38612;BME280;24368;52.156;20.788;2023-04-03T14:22:32;101271.64;;;5.76;48.06
38612;BME280;24368;52.156;20.788;2023-04-03T14:27:47;101280.15;;;5.64;49.14
38612;BME280;24368;52.156;20.788;2023-04-03T14:32:50;101270.91;;;5.88;48.86
38612;BME280;24368;52.156;20.788;2023-04-03T14:37:55;101272.55;;;5.63;49.18
38612;BME280;24368;52.156;20.788;2023-04-03T14:42:56;101271.79;;;5.33;49.11
38612;BME280;24368;52.156;20.788;2023-04-03T14:47:59;101270.98;;;5.24;51.10
38612;BME280;24368;52.156;20.788;2023-04-03T14:53:01;101272.42;;;5.18;51.54
38612;BME280;24368;52.156;20.788;2023-04-03T14:58:03;101276.65;;;5.18;51.88
38612;BME280;24368;52.156;20.788;2023-04-03T15:03:05;101281.61;;;5.08;50.63
38612;BME280;24368;52.156;20.788;2023-04-03T15:08:21;101281.90;;;5.06;50.38
38612;BME280;24368;52.156;20.788;2023-04-03T15:13:25;101279.08;;;5.07;51.41
38612;BME280;24368;52.156;20.788;2023-04-03T15:18:31;101277.92;;;5.00;51.00
38612;BME280;24368;52.156;20.788;2023-04-03T15:23:34;101276.21;;;4.91;51.50
38612;BME280;24368;52.156;20.788;2023-04-03T15:28:38;101273.27;;;4.88;52.11
38612;BME280;24368;52.156;20.788;2023-04-03T15:33:41;101274.98;;;4.74;51.17
38612;BME280;24368;52.156;20.788;2023-04-03T15:38:43;101273.65;;;4.64;51.77
38612;BME280;24368;52.156;20.788;2023-04-03T15:43:45;101280.16;;;4.60;52.61
38612;BME280;24368;52.156;20.788;2023-04-03T15:48:47;101286.25;;;4.50;52.54
38612;BME280;24368;52.156;20.788;2023-04-03T15:53:49;101286.45;;;4.40;52.33
38612;BME280;24368;52.156;20.788;2023-04-03T15:58:50;101287.35;;;4.40;52.48
38612;BME280;24368;52.156;20.788;2023-04-03T16:03:52;101287.63;;;4.35;52.04
38612;BME280;24368;52.156;20.788;2023-04-03T16:08:54;101285.31;;;4.28;52.27
38612;BME280;24368;52.156;20.788;2023-04-03T16:13:59;101285.24;;;4.28;53.45
38612;BME280;24368;52.156;20.788;2023-04-03T16:19:01;101285.39;;;4.26;53.31
38612;BME280;24368;52.156;20.788;2023-04-03T16:24:03;101282.50;;;4.28;54.74
38612;BME280;24368;52.156;20.788;2023-04-03T16:29:04;101277.96;;;4.25;54.91
38612;BME280;24368;52.156;20.788;2023-04-03T16:34:06;101279.38;;;4.18;55.23
38612;BME280;24368;52.156;20.788;2023-04-03T16:39:09;101283.23;;;4.15;54.54
38612;BME280;24368;52.156;20.788;2023-04-03T16:44:14;101285.40;;;4.08;54.82
38612;BME280;24368;52.156;20.788;2023-04-03T16:49:16;101292.91;;;4.02;54.88
38612;BME280;24368;52.156;20.788;2023-04-03T16:54:18;101294.25;;;3.99;56.19
38612;BME280;24368;52.156;20.788;2023-04-03T16:59:20;101294.42;;;3.94;56.88
38612;BME280;24368;52.156;20.788;2023-04-03T17:04:22;101297.25;;;3.87;56.73
38612;BME280;24368;52.156;20.788;2023-04-03T17:09:24;101301.23;;;3.84;56.93
38612;BME280;24368;52.156;20.788;2023-04-03T17:14:26;101305.64;;;3.80;56.54
38612;BME280;24368;52.156;20.788;2023-04-03T17:19:28;101313.11;;;3.78;56.87
38612;BME280;24368;52.156;20.788;2023-04-03T17:24:30;101314.14;;;3.78;57.56
38612;BME280;24368;52.156;20.788;2023-04-03T17:29:32;101316.88;;;3.76;58.93
38612;BME280;24368;52.156;20.788;2023-04-03T17:34:34;101314.56;;;3.67;57.49
38612;BME280;24368;52.156;20.788;2023-04-03T17:39:37;101318.92;;;3.61;57.20
38612;BME280;24368;52.156;20.788;2023-04-03T17:44:39;101321.84;;;3.58;58.35
38612;BME280;24368;52.156;20.788;2023-04-03T17:49:41;101324.98;;;3.56;57.67
38612;BME280;24368;52.156;20.788;2023-04-03T17:54:43;101329.01;;;3.52;58.53
38612;BME280;24368;52.156;20.788;2023-04-03T17:59:45;101331.66;;;3.45;58.07
38612;BME280;24368;52.156;20.788;2023-04-03T18:04:51;101327.48;;;3.42;58.88
38612;BME280;24368;52.156;20.788;2023-04-03T18:09:53;101335.19;;;3.41;58.46
38612;BME280;24368;52.156;20.788;2023-04-03T18:14:58;101337.92;;;3.36;58.49
38612;BME280;24368;52.156;20.788;2023-04-03T18:20:01;101338.35;;;3.34;59.43
38612;BME280;24368;52.156;20.788;2023-04-03T18:25:03;101342.31;;;3.32;59.64
38612;BME280;24368;52.156;20.788;2023-04-03T18:30:10;101346.45;;;3.27;60.04
38612;BME280;24368;52.156;20.788;2023-04-03T18:35:13;101347.73;;;3.28;60.54
38612;BME280;24368;52.156;20.788;2023-04-03T18:40:15;101350.35;;;3.25;61.02
38612;BME280;24368;52.156;20.788;2023-04-03T18:45:21;101350.44;;;3.23;61.12
38612;BME280;24368;52.156;20.788;2023-04-03T18:50:24;101352.43;;;3.22;61.84
38612;BME280;24368;52.156;20.788;2023-04-03T18:55:26;101351.78;;;3.17;62.35
38612;BME280;24368;52.156;20.788;2023-04-03T19:00:28;101350.65;;;3.13;63.07
38612;BME280;24368;52.156;20.788;2023-04-03T19:05:30;101350.78;;;3.04;62.97
38612;BME280;24368;52.156;20.788;2023-04-03T19:10:33;101346.93;;;3.01;63.24
38612;BME280;24368;52.156;20.788;2023-04-03T19:15:35;101350.98;;;3.00;64.36
38612;BME280;24368;52.156;20.788;2023-04-03T19:20:38;101347.61;;;2.94;65.18
38612;BME280;24368;52.156;20.788;2023-04-03T19:25:40;101349.13;;;2.92;66.17
38612;BME280;24368;52.156;20.788;2023-04-03T19:30:43;101354.27;;;2.93;66.44
38612;BME280;24368;52.156;20.788;2023-04-03T19:35:49;101358.36;;;2.92;67.49
38612;BME280;24368;52.156;20.788;2023-04-03T19:40:51;101361.06;;;2.90;68.00
38612;BME280;24368;52.156;20.788;2023-04-03T19:45:55;101361.79;;;2.86;67.59
38612;BME280;24368;52.156;20.788;2023-04-03T19:50:57;101367.45;;;2.81;67.79
38612;BME280;24368;52.156;20.788;2023-04-03T19:55:59;101368.77;;;2.80;68.36
38612;BME280;24368;52.156;20.788;2023-04-03T20:01:01;101372.80;;;2.75;68.66
38612;BME280;24368;52.156;20.788;2023-04-03T20:06:03;101371.69;;;2.66;68.41
38612;BME280;24368;52.156;20.788;2023-04-03T20:11:05;101375.67;;;2.66;68.37
38612;BME280;24368;52.156;20.788;2023-04-03T20:16:07;101375.67;;;2.63;69.08
38612;BME280;24368;52.156;20.788;2023-04-03T20:21:10;101373.54;;;2.57;69.69
38612;BME280;24368;52.156;20.788;2023-04-03T20:26:18;101373.38;;;2.57;70.39
38612;BME280;24368;52.156;20.788;2023-04-03T20:31:25;101373.40;;;2.53;70.77
38612;BME280;24368;52.156;20.788;2023-04-03T20:36:28;101372.99;;;2.48;71.44
38612;BME280;24368;52.156;20.788;2023-04-03T20:41:31;101368.58;;;2.42;72.29
38612;BME280;24368;52.156;20.788;2023-04-03T20:46:36;101369.77;;;2.32;71.53
38612;BME280;24368;52.156;20.788;2023-04-03T20:51:38;101374.22;;;2.30;71.99
38612;BME280;24368;52.156;20.788;2023-04-03T20:56:40;101375.01;;;2.28;71.57
38612;BME280;24368;52.156;20.788;2023-04-03T21:01:43;101371.84;;;2.26;71.05
38612;BME280;24368;52.156;20.788;2023-04-03T21:23:08;101369.91;;;2.01;71.06
38612;BME280;24368;52.156;20.788;2023-04-03T21:28:11;101369.15;;;1.91;71.22
38612;BME280;24368;52.156;20.788;2023-04-03T21:33:13;101370.79;;;1.90;72.08
38612;BME280;24368;52.156;20.788;2023-04-03T21:38:14;101378.04;;;1.87;71.75
38612;BME280;24368;52.156;20.788;2023-04-03T21:43:16;101381.86;;;1.84;71.90
38612;BME280;24368;52.156;20.788;2023-04-03T21:48:18;101379.09;;;1.72;72.67
38612;BME280;24368;52.156;20.788;2023-04-03T21:53:20;101375.98;;;1.64;73.16
38612;BME280;24368;52.156;20.788;2023-04-03T21:58:27;101380.58;;;1.70;74.66
38612;BME280;24368;52.156;20.788;2023-04-03T22:03:30;101385.14;;;1.69;75.11
38612;BME280;24368;52.156;20.788;2023-04-03T22:08:35;101382.51;;;1.58;75.19
38612;BME280;24368;52.156;20.788;2023-04-03T22:13:37;101375.92;;;1.55;75.47
38612;BME280;24368;52.156;20.788;2023-04-03T22:18:39;101378.44;;;1.45;75.51
38612;BME280;24368;52.156;20.788;2023-04-03T22:23:41;101377.95;;;1.44;76.62
38612;BME280;24368;52.156;20.788;2023-04-03T22:28:45;101373.49;;;1.36;76.51
38612;BME280;24368;52.156;20.788;2023-04-03T22:33:47;101375.99;;;1.34;77.63
38612;BME280;24368;52.156;20.788;2023-04-03T22:38:49;101373.38;;;1.27;77.96
38612;BME280;24368;52.156;20.788;2023-04-03T22:43:50;101370.91;;;1.24;78.36
38612;BME280;24368;52.156;20.788;2023-04-03T22:48:52;101369.55;;;1.12;78.36
38612;BME280;24368;52.156;20.788;2023-04-03T22:53:54;101362.67;;;1.10;79.23
38612;BME280;24368;52.156;20.788;2023-04-03T22:58:56;101362.84;;;0.98;78.34
38612;BME280;24368;52.156;20.788;2023-04-03T23:03:57;101358.13;;;0.99;79.22
38612;BME280;24368;52.156;20.788;2023-04-03T23:08:59;101361.62;;;0.95;79.09
38612;BME280;24368;52.156;20.788;2023-04-03T23:14:01;101360.34;;;0.88;78.86
38612;BME280;24368;52.156;20.788;2023-04-03T23:19:03;101357.92;;;0.88;80.10
38612;BME280;24368;52.156;20.788;2023-04-03T23:24:05;101355.69;;;0.84;79.25
38612;BME280;24368;52.156;20.788;2023-04-03T23:29:07;101348.66;;;0.78;79.13
38612;BME280;24368;52.156;20.788;2023-04-03T23:34:09;101355.22;;;0.75;79.94
38612;BME280;24368;52.156;20.788;2023-04-03T23:39:10;101350.59;;;0.73;80.89
38612;BME280;24368;52.156;20.788;2023-04-03T23:44:12;101351.09;;;0.70;81.20
38612;BME280;24368;52.156;20.788;2023-04-03T23:49:14;101345.41;;;0.65;81.40
38612;BME280;24368;52.156;20.788;2023-04-03T23:54:16;101338.71;;;0.63;82.84
38612;BME280;24368;52.156;20.788;2023-04-03T23:59:18;101333.02;;;0.55;82.42
